Time;durP1;ratioP1;P1;durP2;ratioP2;P2;SDS_P1;SDS_P2;PMS_P1;PMS_P2;Temp;Humidity;BMP_temperature;BMP_pressure;BME280_temperature;BME280_humidity;BME280_pressure;Samples;Min_cycle;Max_cycle;Signal;HPM_P1;HPM_P2
2021/04/18 00:00:29;;;;;;;27.20;18.67;;;;;;;;;;4817332;28;20211;-78
2021/04/18 00:02:51;;;;;;;31.07;19.17;;;5.30;99.90;;;;;;4809767;28;20290;-76
2021/04/18 00:05:15;;;;;;;33.13;19.90;;;5.30;99.90;;;;;;4817370;28;20187;-76
2021/04/18 00:07:37;;;;;;;28.37;18.80;;;;;;;;;;4806231;28;20212;-77
2021/04/18 00:09:59;;;;;;;31.63;18.13;;;5.40;99.90;;;;;;4802848;28;20631;-77
2021/04/18 00:12:21;;;;;;;30.73;18.27;;;5.80;99.90;;;;;;4814895;28;20195;-75
2021/04/18 00:14:44;;;;;;;31.47;18.70;;;5.40;99.90;;;;;;4802578;28;20199;-76
2021/04/18 00:17:07;;;;;;;33.30;21.17;;;5.20;99.90;;;;;;4818424;28;20183;-78
2021/04/18 00:19:33;;;;;;;30.07;20.63;;;5.40;99.90;;;;;;4807385;28;20646;-77
2021/04/18 00:21:55;;;;;;;33.80;20.97;;;5.30;99.90;;;;;;4818511;28;20604;-76
2021/04/18 00:24:17;;;;;;;40.27;23.00;;;;;;;;;;4817024;28;20721;-79
2021/04/18 00:26:39;;;;;;;39.03;22.13;;;6.40;99.90;;;;;;4798084;28;20192;-75
2021/04/18 00:29:01;;;;;;;43.63;24.37;;;5.00;99.90;;;;;;4833290;28;20183;-76
2021/04/18 00:31:25;;;;;;;47.03;24.97;;;5.40;99.90;;;;;;4818015;28;20191;-77
2021/04/18 00:33:47;;;;;;;45.13;25.57;;;;;;;;;;4817499;28;20191;-76
2021/04/18 00:36:09;;;;;;;46.30;28.07;;;5.40;99.90;;;;;;4818154;28;20219;-77
2021/04/18 00:38:31;;;;;;;46.60;28.13;;;5.50;99.90;;;;;;4804027;28;20344;-77
2021/04/18 00:40:53;;;;;;;46.20;28.60;;;5.30;99.90;;;;;;4821548;28;20219;-76
2021/04/18 00:43:16;;;;;;;47.43;25.37;;;;;;;;;;4820780;28;20247;-76
2021/04/18 00:45:38;;;;;;;46.70;24.03;;;5.30;99.90;;;;;;4819617;28;20195;-77
2021/04/18 00:48:02;;;;;;;46.77;25.10;;;5.50;99.90;;;;;;4819168;28;20187;-77
2021/04/18 00:50:26;;;;;;;46.63;23.83;;;5.40;99.90;;;;;;4820500;28;20187;-76
2021/04/18 00:52:48;;;;;;;36.00;21.07;;;5.40;99.90;;;;;;4820158;28;20215;-76
2021/04/18 00:55:12;;;;;;;41.77;23.83;;;5.50;99.90;;;;;;4798689;28;20199;-76
2021/04/18 00:57:34;;;;;;;40.87;22.83;;;5.40;99.90;;;;;;4820011;28;20257;-76
2021/04/18 00:59:59;;;;;;;42.23;23.33;;;5.50;99.90;;;;;;4830876;28;20215;-76
2021/04/18 01:02:21;;;;;;;34.73;22.13;;;5.50;99.90;;;;;;4798738;28;20240;-76
2021/04/18 01:04:44;;;;;;;36.87;22.17;;;5.50;99.90;;;;;;4788457;28;20192;-77
2021/04/18 01:07:06;;;;;;;40.07;22.63;;;5.50;99.90;;;;;;4820373;28;20215;-76
2021/04/18 01:09:30;;;;;;;43.30;22.03;;;5.70;99.90;;;;;;4817767;28;20238;-78
2021/04/18 01:11:53;;;;;;;36.27;21.87;;;;;;;;;;4801510;28;21000;-76
2021/04/18 01:14:15;;;;;;;36.93;20.50;;;5.40;99.90;;;;;;4811712;28;20183;-83
2021/04/18 01:16:37;;;;;;;39.87;20.10;;;6.10;99.90;;;;;;4830650;28;20237;-77
2021/04/18 01:19:00;;;;;;;31.37;18.77;;;;;;;;;;4812500;28;20223;-77
2021/04/18 01:21:23;;;;;;;40.90;18.80;;;5.50;99.90;;;;;;4819501;28;20258;-76
2021/04/18 01:23:48;;;;;;;31.80;18.80;;;5.80;99.90;;;;;;4821006;28;20242;-75
2021/04/18 01:26:48;;;;;;;38.10;19.33;;;5.50;99.90;;;;;;4745791;29;20190;-76
2021/04/18 01:29:11;;;;;;;29.80;17.60;;;5.40;99.90;;;;;;4762498;29;20614;-76
2021/04/18 01:31:33;;;;;;;29.23;17.33;;;;;;;;;;4776246;28;20208;-76
2021/04/18 01:33:56;;;;;;;30.57;16.83;;;5.30;99.90;;;;;;4818568;28;20590;-76
2021/04/18 01:36:18;;;;;;;28.27;16.93;;;5.30;99.90;;;;;;4820407;28;20257;-76
2021/04/18 01:38:42;;;;;;;30.70;17.67;;;5.40;99.90;;;;;;4818155;28;20571;-76
2021/04/18 01:41:09;;;;;;;30.77;17.40;;;5.30;99.90;;;;;;4805243;28;20224;-78
2021/04/18 01:43:31;;;;;;;36.03;17.40;;;5.30;99.90;;;;;;4818668;28;20258;-76
2021/04/18 01:45:54;;;;;;;30.97;17.03;;;;;;;;;;4810614;28;20193;-77
2021/04/18 01:48:19;;;;;;;29.00;16.67;;;5.40;99.90;;;;;;4817871;28;20669;-75
2021/04/18 01:50:44;;;;;;;30.17;17.03;;;5.40;99.90;;;;;;4815205;28;20211;-76
2021/04/18 01:53:06;;;;;;;27.90;16.60;;;5.30;99.90;;;;;;4820754;28;20179;-78
2021/04/18 01:55:29;;;;;;;30.57;15.10;;;5.30;99.90;;;;;;4820280;28;20238;-77
2021/04/18 01:57:52;;;;;;;30.40;15.97;;;;;;;;;;4801981;28;20620;-78
2021/04/18 02:00:37;;;;;;;30.23;15.63;;;5.30;99.90;;;;;;4799670;28;20215;-77
2021/04/18 02:02:59;;;;;;;29.30;16.27;;;5.70;99.90;;;;;;4814834;28;20250;-77
2021/04/18 02:05:31;;;;;;;32.43;17.23;;;5.40;99.90;;;;;;4802589;28;20192;-76
2021/04/18 02:07:53;;;;;;;37.30;17.57;;;;;;;;;;4799067;28;20193;-76
2021/04/18 02:10:16;;;;;;;31.47;15.83;;;5.30;99.90;;;;;;4816114;28;20227;-76
2021/04/18 02:12:43;;;;;;;30.90;16.87;;;5.40;99.90;;;;;;4819170;28;20224;-76
2021/04/18 02:15:07;;;;;;;40.17;15.97;;;5.40;99.90;;;;;;4819193;28;20199;-75
2021/04/18 02:17:30;;;;;;;31.60;15.67;;;5.60;99.90;;;;;;4793808;28;20247;-77
2021/04/18 02:19:52;;;;;;;39.43;16.20;;;;;;;;;;4817730;28;20733;-76
2021/04/18 02:22:15;;;;;;;29.47;15.53;;;5.60;99.90;;;;;;4802771;28;20240;-78
2021/04/18 02:24:42;;;;;;;29.80;14.70;;;6.20;99.90;;;;;;4800166;28;20195;-77
2021/04/18 02:27:05;;;;;;;28.43;15.13;;;5.30;99.90;;;;;;4800894;28;20204;-77
2021/04/18 02:29:32;;;;;;;31.27;15.40;;;5.40;99.90;;;;;;4811493;28;20192;-76
2021/04/18 02:32:00;;;;;;;35.43;16.17;;;5.30;99.90;;;;;;4814428;28;20657;-77
2021/04/18 02:34:24;;;;;;;27.03;14.70;;;5.40;99.90;;;;;;4802973;28;20791;-77
2021/04/18 02:36:46;;;;;;;33.63;15.37;;;6.30;99.90;;;;;;4819703;28;20213;-77
2021/04/18 02:39:08;;;;;;;28.13;15.20;;;;;;;;;;4802765;28;20736;-77
2021/04/18 02:41:31;;;;;;;29.77;14.90;;;;;;;;;;4808905;28;20224;-77
2021/04/18 02:43:53;;;;;;;39.40;16.60;;;5.60;99.90;;;;;;4818580;28;20205;-76
2021/04/18 02:46:17;;;;;;;33.33;17.10;;;5.30;99.90;;;;;;4818123;28;20257;-77
2021/04/18 02:48:39;;;;;;;32.33;16.83;;;5.40;99.90;;;;;;4818660;28;20230;-77
2021/04/18 02:51:02;;;;;;;34.43;16.57;;;;;;;;;;4818561;28;20253;-77
2021/04/18 02:53:24;;;;;;;28.43;15.13;;;5.40;99.90;;;;;;4815500;28;20254;-77
2021/04/18 02:55:46;;;;;;;31.33;17.40;;;5.40;99.90;;;;;;4800133;28;20188;-78
2021/04/18 02:58:32;;;;;;;34.63;18.50;;;5.30;99.90;;;;;;4818398;28;20215;-77
2021/04/18 03:00:54;;;;;;;35.73;18.80;;;5.50;99.90;;;;;;4814492;28;20226;-76
2021/04/18 03:03:18;;;;;;;35.67;17.83;;;5.90;99.90;;;;;;4798323;28;20309;-75
2021/04/18 03:05:41;;;;;;;34.40;18.17;;;5.40;99.90;;;;;;4808599;28;20196;-77
2021/04/18 03:08:04;;;;;;;40.13;18.33;;;5.40;99.90;;;;;;4817764;28;20200;-76
2021/04/18 03:10:28;;;;;;;31.60;17.30;;;;;;;;;;4819331;28;20241;-76
2021/04/18 03:12:50;;;;;;;28.53;16.60;;;5.40;99.90;;;;;;4817953;28;20649;-77
2021/04/18 03:15:13;;;;;;;34.77;18.77;;;5.30;99.90;;;;;;4814995;28;20195;-76
2021/04/18 03:17:41;;;;;;;28.27;16.13;;;5.00;99.90;;;;;;4803159;28;20732;-77
2021/04/18 03:20:09;;;;;;;26.70;16.80;;;4.90;99.90;;;;;;4815496;28;20223;-77
2021/04/18 03:22:33;;;;;;;25.57;15.67;;;5.40;99.90;;;;;;4808160;28;20223;-77
2021/04/18 03:24:56;;;;;;;26.40;16.27;;;5.30;99.90;;;;;;4806736;28;20199;-78
2021/04/18 03:27:18;;;;;;;33.97;17.37;;;5.50;99.90;;;;;;4808376;28;20207;-76
2021/04/18 03:29:46;;;;;;;28.73;17.07;;;5.40;99.90;;;;;;4799772;28;20567;-77
2021/04/18 03:32:08;;;;;;;27.60;16.20;;;5.50;99.90;;;;;;4797225;28;20200;-78
2021/04/18 03:34:31;;;;;;;26.43;15.03;;;4.90;99.90;;;;;;4815379;28;20250;-78
2021/04/18 03:36:55;;;;;;;26.67;15.27;;;5.40;99.90;;;;;;4787567;28;20279;-77
2021/04/18 03:39:19;;;;;;;26.00;15.20;;;5.40;99.90;;;;;;4805039;28;20636;-77
2021/04/18 03:41:43;;;;;;;23.70;14.93;;;5.50;99.90;;;;;;4814756;28;20223;-78
2021/04/18 03:44:06;;;;;;;22.00;15.17;;;5.50;99.90;;;;;;4800061;28;20208;-77
2021/04/18 03:46:30;;;;;;;26.27;16.73;;;;;;;;;;4816072;28;20570;-76
2021/04/18 03:48:53;;;;;;;26.27;18.07;;;;;;;;;;4804021;28;20621;-77
2021/04/18 03:51:15;;;;;;;30.53;18.93;;;5.50;99.90;;;;;;4817302;28;20647;-80
2021/04/18 03:53:47;;;;;;;30.03;19.30;;;5.10;99.90;;;;;;4799512;28;20592;-77
2021/04/18 03:56:14;;;;;;;24.50;16.40;;;;;;;;;;4812823;28;20204;-80
2021/04/18 03:58:41;;;;;;;28.73;16.97;;;5.40;99.90;;;;;;4802321;28;20200;-79
2021/04/18 04:01:07;;;;;;;28.70;16.83;;;6.00;99.90;;;;;;4812287;28;20277;-78
2021/04/18 04:03:30;;;;;;;24.27;14.97;;;5.40;99.90;;;;;;4809859;28;20266;-77
2021/04/18 04:05:53;;;;;;;18.90;13.37;;;;;;;;;;4818684;28;20199;-78
2021/04/18 04:08:20;;;;;;;18.93;13.13;;;5.50;99.90;;;;;;4810594;28;20207;-77
2021/04/18 04:10:43;;;;;;;18.37;12.87;;;5.60;99.90;;;;;;4818843;28;20199;-78
2021/04/18 04:13:27;;;;;;;18.47;12.87;;;5.40;99.90;;;;;;4817223;28;20200;-77
2021/04/18 04:16:14;;;;;;;17.90;12.77;;;;;;;;;;4803147;28;20243;-77
2021/04/18 04:18:57;;;;;;;16.80;12.37;;;5.40;99.90;;;;;;4803728;28;20184;-78
2021/04/18 04:21:57;;;;;;;18.87;13.00;;;5.50;99.90;;;;;;4822213;28;20182;-78
2021/04/18 04:24:28;;;;;;;17.53;12.30;;;;;;;;;;4821580;28;20191;-77
2021/04/18 04:26:52;;;;;;;15.70;11.77;;;5.60;99.90;;;;;;4821013;28;20194;-78
2021/04/18 04:29:14;;;;;;;16.40;11.90;;;5.50;99.90;;;;;;4819360;28;20204;-77
2021/04/18 04:31:36;;;;;;;14.97;11.23;;;5.50;99.90;;;;;;4801923;28;20250;-77
2021/04/18 04:33:58;;;;;;;17.43;11.90;;;5.70;99.90;;;;;;4815319;28;20775;-78
2021/04/18 04:36:21;;;;;;;16.10;12.60;;;5.60;99.90;;;;;;4821672;28;20270;-77
2021/04/18 04:38:43;;;;;;;14.13;11.63;;;;;;;;;;4801048;28;20230;-77
2021/04/18 04:41:06;;;;;;;15.37;11.87;;;5.70;99.90;;;;;;4803785;28;20721;-78
2021/04/18 04:43:29;;;;;;;15.60;11.93;;;5.70;99.90;;;;;;4822263;28;20828;-78
2021/04/18 04:45:51;;;;;;;14.53;11.63;;;5.70;99.90;;;;;;4837051;28;20241;-78
2021/04/18 04:48:14;;;;;;;15.60;12.07;;;;;;;;;;4802998;28;20208;-77
2021/04/18 04:50:36;;;;;;;13.80;10.77;;;5.70;99.90;;;;;;4819326;28;20733;-77
2021/04/18 04:52:58;;;;;;;15.17;11.57;;;5.90;99.90;;;;;;4800281;28;20639;-78
2021/04/18 04:55:20;;;;;;;14.97;12.13;;;5.90;99.90;;;;;;4816240;28;20261;-78
2021/04/18 04:57:42;;;;;;;16.13;12.60;;;5.80;99.90;;;;;;4821960;28;20253;-78
2021/04/18 05:00:07;;;;;;;13.67;10.20;;;6.00;99.90;;;;;;4804468;28;21029;-77
2021/04/18 05:02:30;;;;;;;15.20;12.50;;;;;;;;;;4818021;28;20195;-78
2021/04/18 05:04:52;;;;;;;15.00;11.90;;;6.10;99.90;;;;;;4821733;28;20191;-77
2021/04/18 05:07:14;;;;;;;13.53;10.50;;;6.10;99.90;;;;;;4804737;28;20196;-77
2021/04/18 05:09:36;;;;;;;12.93;10.43;;;6.10;99.90;;;;;;4803318;28;20242;-78
2021/04/18 05:11:58;;;;;;;12.83;10.43;;;6.20;99.90;;;;;;4820257;28;20242;-78
2021/04/18 05:14:20;;;;;;;10.27;9.17;;;6.10;99.90;;;;;;4821583;28;20261;-77
2021/04/18 05:16:43;;;;;;;10.47;9.37;;;6.20;99.90;;;;;;4819734;28;20199;-77
2021/04/18 05:19:05;;;;;;;11.90;9.67;;;6.60;99.90;;;;;;4820168;28;20222;-78
2021/04/18 05:21:27;;;;;;;11.07;9.70;;;6.30;99.90;;;;;;4819416;28;20277;-77
2021/04/18 05:23:50;;;;;;;9.97;8.77;;;6.10;99.90;;;;;;4820293;28;20187;-77
2021/04/18 05:26:12;;;;;;;10.07;7.87;;;6.70;99.90;;;;;;4820121;28;20576;-79
2021/04/18 05:28:34;;;;;;;9.17;8.13;;;6.40;99.90;;;;;;4821193;28;20214;-79
2021/04/18 05:30:57;;;;;;;9.53;8.30;;;6.30;99.90;;;;;;4802591;28;20191;-77
2021/04/18 05:33:20;;;;;;;9.17;8.23;;;6.30;99.90;;;;;;4819086;28;20242;-76
2021/04/18 05:35:43;;;;;;;10.90;9.07;;;6.40;99.90;;;;;;4802489;28;20371;-77
2021/04/18 05:38:05;;;;;;;10.90;9.07;;;6.40;99.90;;;;;;4802049;28;20681;-77
2021/04/18 05:40:27;;;;;;;10.63;9.20;;;6.40;99.90;;;;;;4820671;28;20263;-79
2021/04/18 05:42:50;;;;;;;10.27;8.53;;;;;;;;;;4802039;28;20212;-77
2021/04/18 05:45:13;;;;;;;13.60;11.80;;;;;;;;;;4819711;28;20716;-77
2021/04/18 05:47:35;;;;;;;12.30;10.57;;;6.50;99.90;;;;;;4803058;28;20208;-76
2021/04/18 05:49:58;;;;;;;11.63;8.70;;;6.50;99.90;;;;;;4819163;28;20580;-77
2021/04/18 05:52:20;;;;;;;8.53;7.67;;;6.80;99.90;;;;;;4802855;28;20200;-76
2021/04/18 05:54:42;;;;;;;8.70;7.50;;;6.60;99.90;;;;;;4801160;28;20251;-76
2021/04/18 05:57:05;;;;;;;8.67;7.73;;;6.60;99.90;;;;;;4820720;28;20253;-76
2021/04/18 05:59:27;;;;;;;10.47;9.27;;;6.80;99.90;;;;;;4819295;28;20242;-77
2021/04/18 06:01:49;;;;;;;11.77;10.40;;;6.80;99.90;;;;;;4821499;28;20227;-78
2021/04/18 06:04:11;;;;;;;9.57;8.57;;;;;;;;;;4811905;28;20188;-77
2021/04/18 06:06:34;;;;;;;8.27;7.43;;;6.80;99.90;;;;;;4820531;28;20723;-77
2021/04/18 06:08:56;;;;;;;9.03;7.93;;;6.80;99.90;;;;;;4820030;28;20609;-78
2021/04/18 06:11:19;;;;;;;8.30;7.47;;;6.90;99.90;;;;;;4820960;28;20187;-77
2021/04/18 06:13:41;;;;;;;8.10;7.10;;;6.70;99.90;;;;;;4817753;28;20258;-78
2021/04/18 06:16:04;;;;;;;7.80;7.00;;;6.90;99.90;;;;;;4801487;28;20192;-76
2021/04/18 06:18:26;;;;;;;7.80;7.00;;;6.90;99.90;;;;;;4820464;28;20600;-77
2021/04/18 06:20:49;;;;;;;7.57;6.80;;;7.50;99.90;;;;;;4802701;28;20787;-76
2021/04/18 06:23:12;;;;;;;7.90;7.03;;;6.80;98.00;;;;;;4820013;28;20556;-78
2021/04/18 06:25:34;;;;;;;7.60;6.90;;;7.70;94.30;;;;;;4801223;28;20674;-77
2021/04/18 06:27:56;;;;;;;17.07;15.23;;;;;;;;;;4818254;28;20191;-78
2021/04/18 06:30:19;;;;;;;12.77;11.33;;;7.00;93.00;;;;;;4819768;28;20200;-77
2021/04/18 06:32:42;;;;;;;8.27;7.47;;;6.90;94.00;;;;;;4817526;28;20227;-77
2021/04/18 06:35:06;;;;;;;9.87;8.83;;;6.80;95.90;;;;;;4818798;28;20227;-76
2021/04/18 06:37:28;;;;;;;9.80;8.90;;;7.10;97.20;;;;;;4817793;28;20187;-78
2021/04/18 06:39:51;;;;;;;8.20;7.40;;;7.20;96.30;;;;;;4818750;28;20245;-77
2021/04/18 06:42:17;;;;;;;7.27;6.57;;;7.20;91.20;;;;;;4815119;28;20222;-76
2021/04/18 06:44:39;;;;;;;6.87;6.27;;;7.40;96.90;;;;;;4819815;28;20187;-77
2021/04/18 06:47:02;;;;;;;6.00;5.50;;;7.50;96.10;;;;;;4818526;28;20214;-77
2021/04/18 06:49:25;;;;;;;22.13;17.17;;;7.60;93.40;;;;;;4816111;28;20259;-77
2021/04/18 06:51:48;;;;;;;58.67;35.50;;;7.60;88.40;;;;;;4834791;28;20242;-77
2021/04/18 06:54:11;;;;;;;63.20;42.10;;;7.60;80.10;;;;;;4801045;28;20251;-75
2021/04/18 06:56:34;;;;;;;26.63;21.83;;;7.70;56.50;;;;;;4815642;28;20329;-75
2021/04/18 06:58:58;;;;;;;116.00;99.93;;;7.70;44.70;;;;;;4816336;28;20250;-77
2021/04/18 07:01:20;;;;;;;157.87;141.47;;;7.80;55.50;;;;;;4799880;28;20223;-76
2021/04/18 07:03:42;;;;;;;29.93;25.90;;;;;;;;;;4786358;28;20611;-75
2021/04/18 07:06:04;;;;;;;6.73;6.13;;;;;;;;;;4819429;28;20195;-76
2021/04/18 07:08:28;;;;;;;6.10;5.40;;;7.60;49.90;;;;;;4815552;28;20261;-76
2021/04/18 07:10:51;;;;;;;6.50;5.90;;;;;;;;;;4803386;28;20232;-77
2021/04/18 07:13:16;;;;;;;5.60;5.10;;;7.30;48.60;;;;;;4819301;28;20196;-78
2021/04/18 07:15:41;;;;;;;6.50;5.90;;;6.70;55.30;;;;;;4818566;28;20206;-76
2021/04/18 07:18:03;;;;;;;10.97;8.53;;;7.50;55.80;;;;;;4819628;28;20195;-76
2021/04/18 07:20:25;;;;;;;7.53;6.83;;;7.30;60.30;;;;;;4816876;28;20227;-77
2021/04/18 07:22:48;;;;;;;6.30;5.70;;;7.30;60.60;;;;;;4817979;28;20781;-76
2021/04/18 07:25:11;;;;;;;5.80;5.27;;;7.30;53.60;;;;;;4816997;28;20222;-76
2021/04/18 07:27:48;;;;;;;12.13;9.83;;;7.20;57.70;;;;;;4818293;28;20196;-76
2021/04/18 07:30:14;;;;;;;5.67;5.07;;;7.50;59.80;;;;;;4816784;28;20644;-77
2021/04/18 07:32:36;;;;;;;6.80;6.13;;;7.30;73.20;;;;;;4817610;28;20187;-77
2021/04/18 07:35:00;;;;;;;6.33;5.73;;;7.50;65.10;;;;;;4809436;28;20223;-76
2021/04/18 07:37:25;;;;;;;4.97;4.47;;;7.50;77.90;;;;;;4818554;28;20191;-78
2021/04/18 07:39:52;;;;;;;5.83;5.30;;;7.50;77.90;;;;;;4800185;28;20566;-80
2021/04/18 07:42:32;;;;;;;6.80;6.20;;;7.70;78.60;;;;;;4817239;28;20685;-80
2021/04/18 07:44:56;;;;;;;9.53;8.37;;;7.80;73.60;;;;;;4798687;28;20228;-76
2021/04/18 07:47:19;;;;;;;4.83;4.43;;;8.00;72.40;;;;;;4833519;28;20606;-76
2021/04/18 07:49:42;;;;;;;5.93;5.43;;;;;;;;;;4814866;28;20339;-77
2021/04/18 07:52:05;;;;;;;4.90;4.50;;;8.50;48.10;;;;;;4814644;28;20741;-77
2021/04/18 07:54:27;;;;;;;4.43;4.03;;;8.30;41.50;;;;;;4817064;28;20207;-77
2021/04/18 07:56:50;;;;;;;3.73;3.43;;;8.30;35.40;;;;;;4787041;28;20203;-77
2021/04/18 07:59:14;;;;;;;4.60;4.20;;;8.60;24.80;;;;;;4815189;28;20317;-77
2021/04/18 08:01:37;;;;;;;4.07;3.73;;;8.40;22.40;;;;;;4787659;28;20222;-78
2021/04/18 08:04:01;;;;;;;4.57;4.13;;;8.80;27.00;;;;;;4797148;28;20192;-75
2021/04/18 08:06:26;;;;;;;3.57;3.30;;;;;;;;;;4813193;28;20860;-76
2021/04/18 08:08:50;;;;;;;4.37;4.00;;;8.80;1.00;;;;;;4796195;28;20736;-78
2021/04/18 08:11:15;;;;;;;11.27;8.70;;;8.80;1.00;;;;;;4817326;28;20203;-75
2021/04/18 08:13:39;;;;;;;7.10;6.37;;;9.00;7.30;;;;;;4799366;28;20351;-79
2021/04/18 08:16:04;;;;;;;6.83;6.13;;;9.50;1.80;;;;;;4805063;28;20208;-75
2021/04/18 08:18:29;;;;;;;9.40;7.70;;;9.00;1.00;;;;;;4810639;28;20262;-81
2021/04/18 08:20:52;;;;;;;3.53;3.23;;;9.20;1.00;;;;;;4818177;28;20258;-77
2021/04/18 08:23:17;;;;;;;11.17;9.67;;;9.00;1.00;;;;;;4814565;28;20687;-75
2021/04/18 08:26:06;;;;;;;4.60;3.80;;;9.10;1.00;;;;;;4813734;28;20756;-77
2021/04/18 08:28:28;;;;;;;3.30;3.00;;;;;;;;;;4817076;28;20250;-78
2021/04/18 08:31:02;;;;;;;3.20;3.00;;;9.10;1.00;;;;;;4817120;28;20192;-77
2021/04/18 08:33:43;;;;;;;3.47;3.17;;;9.00;1.00;;;;;;4819226;28;20200;-78
2021/04/18 08:36:15;;;;;;;5.30;4.80;;;8.90;1.00;;;;;;4814088;28;20219;-76
2021/04/18 08:38:38;;;;;;;5.30;4.80;;;8.60;1.00;;;;;;4814471;28;20194;-80
2021/04/18 08:41:04;;;;;;;6.27;5.67;;;9.10;1.00;;;;;;4814907;28;20235;-78
2021/04/18 08:43:27;;;;;;;8.53;7.70;;;8.90;1.00;;;;;;4816647;28;20874;-76
2021/04/18 08:45:51;;;;;;;8.87;8.03;;;9.10;1.00;;;;;;4799056;28;20291;-75
2021/04/18 08:48:14;;;;;;;4.17;3.80;;;9.20;1.00;;;;;;4800308;28;20261;-74
2021/04/18 08:50:37;;;;;;;4.27;3.97;;;9.10;1.00;;;;;;4817653;28;20569;-77
2021/04/18 08:53:03;;;;;;;4.47;4.10;;;9.30;1.00;;;;;;4815985;28;20355;-74
2021/04/18 08:55:25;;;;;;;2.77;2.57;;;9.70;1.00;;;;;;4798608;28;20270;-75
2021/04/18 08:57:47;;;;;;;2.73;2.53;;;10.00;1.00;;;;;;4787035;28;20200;-76
2021/04/18 09:00:13;;;;;;;4.17;3.80;;;10.30;1.00;;;;;;4821027;28;20307;-81
2021/04/18 09:02:36;;;;;;;2.13;1.97;;;;;;;;;;4802806;28;20227;-80
2021/04/18 09:05:00;;;;;;;1.90;1.80;;;10.90;1.00;;;;;;4807535;28;20191;-79
2021/04/18 09:07:25;;;;;;;2.80;2.60;;;12.00;1.00;;;;;;4818708;28;20263;-76
2021/04/18 09:09:49;;;;;;;2.07;1.97;;;11.90;99.90;;;;;;4819875;28;20195;-80
2021/04/18 09:12:12;;;;;;;1.83;1.73;;;12.40;1.00;;;;;;4819734;28;20556;-79
2021/04/18 09:14:36;;;;;;;1.83;1.73;;;12.70;99.90;;;;;;4804116;28;20255;-79
2021/04/18 09:17:10;;;;;;;1.30;1.23;;;12.90;1.00;;;;;;4818687;28;20195;-77
2021/04/18 09:19:32;;;;;;;1.43;1.37;;;13.90;30.80;;;;;;4820682;28;20254;-81
2021/04/18 09:21:59;;;;;;;1.00;1.00;;;13.30;1.00;;;;;;4820183;28;20212;-81
2021/04/18 09:24:22;;;;;;;1.47;1.37;;;15.10;1.00;;;;;;4819710;28;20204;-75
2021/04/18 09:26:57;;;;;;;3.60;2.93;;;15.80;1.00;;;;;;4818725;28;20197;-80
2021/04/18 09:29:21;;;;;;;2.03;1.20;;;;;;;;;;4821778;28;20246;-78
2021/04/18 09:31:58;;;;;;;2.40;1.73;;;16.90;1.00;;;;;;4820153;28;20225;-79
2021/04/18 09:34:23;;;;;;;1.67;1.10;;;18.00;1.00;;;;;;4803567;28;20621;-80
2021/04/18 09:36:46;;;;;;;2.13;1.00;;;;;;;;;;4821528;28;20270;-81
2021/04/18 09:39:09;;;;;;;6.37;1.90;;;;;;;;;;4819801;28;20672;-78
2021/04/18 09:41:36;;;;;;;1.63;0.83;;;;;;;;;;4806141;28;20282;-79
2021/04/18 09:43:59;;;;;;;2.97;1.13;;;17.20;1.00;;;;;;4810260;28;20231;-77
2021/04/18 09:46:21;;;;;;;2.80;1.17;;;;;;;;;;4819685;28;20293;-81
2021/04/18 09:48:44;;;;;;;1.80;0.90;;;;;;;;;;4817779;28;20196;-79
2021/04/18 09:51:08;;;;;;;3.20;1.43;;;15.80;1.00;;;;;;4817831;28;20220;-76
2021/04/18 09:53:30;;;;;;;1.23;0.80;;;;;;;;;;4820400;28;20254;-79
2021/04/18 09:55:55;;;;;;;1.83;1.03;;;14.90;1.00;;;;;;4819688;28;20689;-78
2021/04/18 09:58:26;;;;;;;1.77;1.00;;;14.50;1.00;;;;;;4800251;28;20196;-78
2021/04/18 10:00:49;;;;;;;1.97;1.17;;;14.20;1.00;;;;;;4782707;28;20944;-74
2021/04/18 10:03:14;;;;;;;1.90;1.33;;;13.80;1.00;;;;;;4815799;28;20193;-79
2021/04/18 10:05:38;;;;;;;0.80;0.80;;;13.50;1.00;;;;;;4819403;28;20589;-78
2021/04/18 10:08:18;;;;;;;2.93;1.80;;;13.10;1.00;;;;;;4818168;28;20203;-76
2021/04/18 10:10:41;;;;;;;1.87;1.37;;;;;;;;;;4819306;28;20242;-78
2021/04/18 10:13:03;;;;;;;1.53;1.13;;;12.30;1.00;;;;;;4818527;28;20663;-75
2021/04/18 10:15:25;;;;;;;1.47;1.37;;;12.70;1.00;;;;;;4819738;28;20191;-79
2021/04/18 10:17:48;;;;;;;1.43;1.20;;;12.20;1.00;;;;;;4808827;28;20246;-78
2021/04/18 10:20:11;;;;;;;5.13;3.23;;;12.00;1.00;;;;;;4799822;28;20540;-77
2021/04/18 10:22:34;;;;;;;2.00;1.77;;;;;;;;;;4805540;28;20207;-84
2021/04/18 10:24:58;;;;;;;1.43;1.33;;;12.20;1.00;;;;;;4816199;28;20207;-81
2021/04/18 10:27:22;;;;;;;1.47;1.37;;;12.20;1.00;;;;;;4805733;28;20231;-77
2021/04/18 10:29:45;;;;;;;2.47;1.57;;;;;;;;;;4820564;28;20187;-80
2021/04/18 10:32:07;;;;;;;2.80;1.90;;;13.60;1.00;;;;;;4817317;28;20297;-80
2021/04/18 10:34:30;;;;;;;2.10;1.47;;;14.20;1.00;;;;;;4819929;28;20187;-81
2021/04/18 10:36:53;;;;;;;1.20;0.97;;;15.30;1.00;;;;;;4815861;28;20243;-77
2021/04/18 10:39:16;;;;;;;1.53;1.33;;;15.90;1.00;;;;;;4814818;28;20187;-79
2021/04/18 10:41:38;;;;;;;0.97;0.87;;;;;;;;;;4813817;28;20235;-77
2021/04/18 10:44:01;;;;;;;1.63;1.03;;;;;;;;;;4801429;28;20603;-79
2021/04/18 10:46:24;;;;;;;1.17;0.80;;;;;;;;;;4789768;28;20199;-79
2021/04/18 10:48:46;;;;;;;1.20;0.80;;;;;;;;;;4800580;28;20929;-81
2021/04/18 10:51:09;;;;;;;1.63;1.17;;;15.90;1.00;;;;;;4788057;28;20678;-79
2021/04/18 10:53:31;;;;;;;1.13;0.87;;;15.80;1.00;;;;;;4813288;28;20204;-81
2021/04/18 10:55:53;;;;;;;4.53;2.50;;;;;;;;;;4818149;28;20203;-84
2021/04/18 10:58:16;;;;;;;1.53;1.23;;;;;;;;;;4816833;28;20200;-81
2021/04/18 11:00:39;;;;;;;7.67;4.83;;;;;;;;;;4814517;28;20196;-82
2021/04/18 11:03:01;;;;;;;0.97;0.83;;;;;;;;;;4818328;28;20727;-82
2021/04/18 11:05:24;;;;;;;0.70;0.70;;;16.50;1.00;;;;;;4817488;28;20183;-78
2021/04/18 11:07:47;;;;;;;0.70;0.70;;;19.20;1.00;;;;;;4798300;28;20188;-79
2021/04/18 11:10:10;;;;;;;1.17;1.07;;;16.20;1.00;;;;;;4815198;28;20184;-85
2021/04/18 11:12:32;;;;;;;1.40;1.27;;;16.10;1.00;;;;;;4823386;28;20210;-76
2021/04/18 11:14:55;;;;;;;0.63;0.63;;;16.20;1.00;;;;;;4818717;28;20191;-82
2021/04/18 11:17:18;;;;;;;1.83;0.80;;;18.00;99.90;;;;;;4817946;28;20207;-77
2021/04/18 11:19:40;;;;;;;5.00;0.97;;;;;;;;;;4818909;28;20254;-81
2021/04/18 11:22:04;;;;;;;9.13;1.50;;;21.00;99.90;;;;;;4817508;28;20193;-79
2021/04/18 11:24:28;;;;;;;8.40;1.33;;;23.80;99.90;;;;;;4817450;28;20241;-79
2021/04/18 11:26:50;;;;;;;16.17;4.37;;;;;;;;;;4818284;28;20288;-83
2021/04/18 11:29:12;;;;;;;30.47;9.47;;;;;;;;;;4786034;28;20192;-81
2021/04/18 11:31:35;;;;;;;10.50;1.33;;;;;;;;;;4818061;28;20623;-80
2021/04/18 11:33:57;;;;;;;34.90;4.27;;;;;;;;;;4818261;28;20270;-83
2021/04/18 11:36:20;;;;;;;11.10;1.43;;;;;;;;;;4818405;28;20218;-78
2021/04/18 11:38:42;;;;;;;14.33;1.83;;;;;;;;;;4802321;28;20297;-81
2021/04/18 11:41:05;;;;;;;23.23;2.83;;;27.90;99.90;;;;;;4817772;28;20761;-77
2021/04/18 11:43:28;;;;;;;10.77;1.40;;;;;;;;;;4802236;28;20223;-80
2021/04/18 11:45:51;;;;;;;104.53;11.57;;;;;;;;;;4795584;28;20217;-77
2021/04/18 11:48:13;;;;;;;17.43;2.30;;;;;;;;;;4816669;28;20231;-78
2021/04/18 11:50:35;;;;;;;11.33;1.57;;;;;;;;;;4817244;28;20210;-82
2021/04/18 11:52:58;;;;;;;8.40;1.33;;;;;;;;;;4818921;28;20230;-82
2021/04/18 11:55:22;;;;;;;12.73;1.97;;;;;;;;;;4817867;28;20186;-77
2021/04/18 11:57:45;;;;;;;7.23;1.27;;;20.20;99.90;;;;;;4816530;28;20203;-77
2021/04/18 12:00:09;;;;;;;14.33;2.27;;;20.30;99.90;;;;;;4814143;28;20214;-77
2021/04/18 12:02:32;;;;;;;14.43;2.37;;;;;;;;;;4796500;28;20581;-77
2021/04/18 12:04:54;;;;;;;7.20;1.30;;;;;;;;;;4811923;28;20233;-77
2021/04/18 12:07:16;;;;;;;11.00;2.00;;;;;;;;;;4817295;28;20192;-82
2021/04/18 12:09:39;;;;;;;6.10;1.20;;;;;;;;;;4817151;28;20204;-82
2021/04/18 12:12:01;;;;;;;4.70;0.90;;;22.30;99.90;;;;;;4818605;28;20340;-80
2021/04/18 12:14:24;;;;;;;3.83;0.67;;;22.40;99.90;;;;;;4818501;28;20264;-81
2021/04/18 12:16:47;;;;;;;11.77;1.83;;;;;;;;;;4799985;28;20202;-80
2021/04/18 12:19:09;;;;;;;9.93;1.57;;;;;;;;;;4817333;28;20199;-83
2021/04/18 12:21:31;;;;;;;6.07;1.10;;;;;;;;;;4814917;28;20301;-76
2021/04/18 12:23:55;;;;;;;9.53;1.70;;;;;;;;;;4786743;28;20743;-86
2021/04/18 12:26:18;;;;;;;5.03;1.03;;;;;;;;;;4816406;28;20197;-81
2021/04/18 12:28:40;;;;;;;8.30;1.47;;;;;;;;;;4832292;28;20201;-80
2021/04/18 12:31:03;;;;;;;5.67;1.10;;;19.80;99.90;;;;;;4785289;28;20218;-79
2021/04/18 12:33:27;;;;;;;6.77;1.27;;;;;;;;;;4817882;28;20239;-80
2021/04/18 12:35:49;;;;;;;8.43;1.63;;;;;;;;;;4805017;28;20243;-82
2021/04/18 12:38:11;;;;;;;11.07;2.00;;;;;;;;;;4816062;28;20190;-84
2021/04/18 12:40:34;;;;;;;6.57;1.30;;;;;;;;;;4804202;28;20765;-83
2021/04/18 12:42:56;;;;;;;4.83;1.00;;;;;;;;;;4805279;28;20264;-83
2021/04/18 12:45:18;;;;;;;9.27;1.73;;;;;;;;;;4820850;28;20263;-82
2021/04/18 12:47:41;;;;;;;4.47;1.00;;;20.90;99.90;;;;;;4820336;28;20205;-79
2021/04/18 12:50:05;;;;;;;14.10;2.50;;;21.80;1.00;;;;;;4819707;28;20204;-77
2021/04/18 12:52:28;;;;;;;5.77;1.17;;;;;;;;;;4820776;28;20208;-81
2021/04/18 12:54:50;;;;;;;2.77;0.70;;;;;;;;;;4804158;28;20226;-85